Time;durP1;ratioP1;P1;durP2;ratioP2;P2;SDS_P1;SDS_P2;PMS_P1;PMS_P2;Temp;Humidity;BMP_temperature;BMP_pressure;BME280_temperature;BME280_humidity;BME280_pressure;Samples;Min_cycle;Max_cycle;Signal;HPM_P1;HPM_P2
2023/07/21 00:00:26;;;;;;;;;;;16.20;99.90;;;;;;2075196;28;20380;-71
2023/07/21 00:01:28;;;;;;;;;;;16.20;99.90;;;;;;2069044;28;19913;-69
2023/07/21 00:02:28;;;;;;;;;;;16.10;99.90;;;;;;2074942;28;20159;-71
2023/07/21 00:03:30;;;;;;;;;;;16.10;99.90;;;;;;2072914;28;19928;-70
2023/07/21 00:04:30;;;;;;;;;;;16.00;99.90;;;;;;2075039;28;19917;-71
2023/07/21 00:05:31;;;;;;;;;;;16.00;99.90;;;;;;2075189;28;19955;-68
2023/07/21 00:06:31;;;;;;;;;;;16.00;99.90;;;;;;2077897;28;20600;-70
2023/07/21 00:07:32;;;;;;;;;;;16.00;99.90;;;;;;2075746;28;19913;-69
2023/07/21 00:08:33;;;;;;;;;;;16.00;99.90;;;;;;2075909;28;19963;-69
2023/07/21 00:09:34;;;;;;;;;;;15.90;99.90;;;;;;2075741;28;20407;-69
2023/07/21 00:10:35;;;;;;;;;;;16.00;99.90;;;;;;2077574;28;19917;-69
2023/07/21 00:11:38;;;;;;;;;;;16.00;99.90;;;;;;2075529;28;19925;-68
2023/07/21 00:12:40;;;;;;;;;;;15.90;99.90;;;;;;2075585;28;20043;-70
2023/07/21 00:13:40;;;;;;;;;;;15.90;99.90;;;;;;2074852;28;20056;-69
2023/07/21 00:14:41;;;;;;;;;;;15.90;99.90;;;;;;2075084;28;19983;-70
2023/07/21 00:15:42;;;;;;;;;;;15.90;99.90;;;;;;2075906;28;20278;-69
2023/07/21 00:16:42;;;;;;;;;;;15.90;99.90;;;;;;2077005;28;19913;-70
2023/07/21 00:17:49;;;;;;;;;;;15.90;99.90;;;;;;2075055;28;19913;-70
2023/07/21 00:18:50;;;;;;;;;;;15.80;99.90;;;;;;2075799;28;19924;-70
2023/07/21 00:19:51;;;;;;;;;;;15.80;99.90;;;;;;2075053;28;19917;-70
2023/07/21 00:20:52;;;;;;;;;;;15.80;99.90;;;;;;2076174;28;19953;-70
2023/07/21 00:21:52;;;;;;;;;;;15.80;99.90;;;;;;2066910;28;19956;-70
2023/07/21 00:22:53;;;;;;;;;;;15.80;99.90;;;;;;2066895;28;19924;-70
2023/07/21 00:23:53;;;;;;;;;;;15.80;99.90;;;;;;2074868;28;19913;-70
2023/07/21 00:24:54;;;;;;;;;;;15.70;99.90;;;;;;2075702;28;19943;-70
2023/07/21 00:25:54;;;;;;;;;;;15.70;99.90;;;;;;2074944;28;19956;-70
2023/07/21 00:26:56;;;;;;;;;;;15.70;99.90;;;;;;2076915;28;20341;-72
2023/07/21 00:27:57;;;;;;;;;;;15.70;99.90;;;;;;2073974;28;19913;-71
2023/07/21 00:28:57;;;;;;;;;;;15.70;99.90;;;;;;2075956;28;19961;-70
2023/07/21 00:29:58;;;;;;;;;;;15.70;99.90;;;;;;2066752;28;19927;-70
2023/07/21 00:30:59;;;;;;;;;;;15.70;99.90;;;;;;2068798;28;20435;-71
2023/07/21 00:32:01;;;;;;;;;;;15.70;99.90;;;;;;2074841;28;19932;-70
2023/07/21 00:33:02;;;;;;;;;;;15.70;99.90;;;;;;2075936;28;20288;-70
2023/07/21 00:34:04;;;;;;;;;;;15.70;99.90;;;;;;2075008;28;19917;-71
2023/07/21 00:35:06;;;;;;;;;;;15.70;99.90;;;;;;2075129;28;19917;-72
2023/07/21 00:36:07;;;;;;;;;;;15.60;99.90;;;;;;2076943;28;20293;-70
2023/07/21 00:37:08;;;;;;;;;;;15.70;99.90;;;;;;2066888;28;19949;-71
2023/07/21 00:38:09;;;;;;;;;;;15.70;99.90;;;;;;2066724;28;20273;-76
2023/07/21 00:39:09;;;;;;;;;;;15.60;99.90;;;;;;2072193;28;19951;-71
2023/07/21 00:40:10;;;;;;;;;;;15.60;99.90;;;;;;2067348;28;19918;-70
2023/07/21 00:41:10;;;;;;;;;;;15.60;99.90;;;;;;2066879;28;19924;-72
2023/07/21 00:42:11;;;;;;;;;;;15.60;99.90;;;;;;2074929;28;19917;-70
2023/07/21 00:43:13;;;;;;;;;;;15.60;99.90;;;;;;2074977;28;19917;-71
2023/07/21 00:44:14;;;;;;;;;;;15.60;99.90;;;;;;2075050;28;19913;-71
2023/07/21 00:45:14;;;;;;;;;;;15.60;99.90;;;;;;2075235;28;20564;-70
2023/07/21 00:46:15;;;;;;;;;;;15.60;99.90;;;;;;2077413;28;19928;-70
2023/07/21 00:47:16;;;;;;;;;;;15.50;99.90;;;;;;2075065;28;20141;-70
2023/07/21 00:48:17;;;;;;;;;;;15.50;99.90;;;;;;2075233;28;19924;-73
2023/07/21 00:49:17;;;;;;;;;;;15.50;99.90;;;;;;2075099;28;19917;-71
2023/07/21 00:50:18;;;;;;;;;;;15.50;99.90;;;;;;2077115;28;19913;-71
2023/07/21 00:51:22;;;;;;;;;;;15.50;99.90;;;;;;2075717;28;20052;-72
2023/07/21 00:52:23;;;;;;;;;;;15.50;99.90;;;;;;2087455;28;19912;-71
2023/07/21 00:53:24;;;;;;;;;;;15.50;99.90;;;;;;2078676;28;19917;-72
2023/07/21 00:54:24;;;;;;;;;;;15.50;99.90;;;;;;2077319;28;19917;-71
2023/07/21 00:55:25;;;;;;;;;;;15.50;99.90;;;;;;2075771;28;20410;-71
2023/07/21 00:56:26;;;;;;;;;;;15.40;99.90;;;;;;2075017;28;20032;-71
2023/07/21 00:57:27;;;;;;;;;;;15.40;99.90;;;;;;2069642;28;19918;-71
2023/07/21 00:58:30;;;;;;;;;;;15.40;99.90;;;;;;2065843;28;20276;-71
2023/07/21 00:59:31;;;;;;;;;;;15.40;99.90;;;;;;2074813;28;19917;-71
2023/07/21 01:00:31;;;;;;;;;;;15.40;99.90;;;;;;2075518;28;19917;-71
2023/07/21 01:01:32;;;;;;;;;;;15.40;99.90;;;;;;2075590;28;20395;-71
2023/07/21 01:02:33;;;;;;;;;;;15.40;99.90;;;;;;2075038;28;19920;-71
2023/07/21 01:03:35;;;;;;;;;;;15.40;99.90;;;;;;2075589;28;19917;-71
2023/07/21 01:04:36;;;;;;;;;;;15.40;99.90;;;;;;2077416;28;19975;-71
2023/07/21 01:05:39;;;;;;;;;;;15.40;99.90;;;;;;2075628;28;20371;-70
2023/07/21 01:06:41;;;;;;;;;;;15.40;99.90;;;;;;2075632;28;19913;-71
2023/07/21 01:07:41;;;;;;;;;;;15.40;99.90;;;;;;2075145;28;20011;-71
2023/07/21 01:08:42;;;;;;;;;;;15.40;99.90;;;;;;2077203;28;19921;-71
2023/07/21 01:09:43;;;;;;;;;;;15.40;99.90;;;;;;2072084;28;19914;-72
2023/07/21 01:10:44;;;;;;;;;;;15.40;99.90;;;;;;2066434;28;19956;-71
2023/07/21 01:11:46;;;;;;;;;;;15.40;99.90;;;;;;2074782;28;20399;-71
2023/07/21 01:12:48;;;;;;;;;;;15.40;99.90;;;;;;2075409;28;20380;-71
2023/07/21 01:13:49;;;;;;;;;;;15.40;99.90;;;;;;2075274;28;19918;-71
2023/07/21 01:14:50;;;;;;;;;;;15.30;99.90;;;;;;2077704;28;20055;-70
2023/07/21 01:15:53;;;;;;;;;;;15.30;99.90;;;;;;2075995;28;20343;-71
2023/07/21 01:16:55;;;;;;;;;;;15.30;99.90;;;;;;2075487;28;20084;-71
2023/07/21 01:17:57;;;;;;;;;;;15.30;99.90;;;;;;2075466;28;19928;-71
2023/07/21 01:18:59;;;;;;;;;;;15.30;99.90;;;;;;2073590;28;20160;-70
2023/07/21 01:20:00;;;;;;;;;;;15.30;99.90;;;;;;2076008;28;19917;-71
2023/07/21 01:21:02;;;;;;;;;;;15.30;99.90;;;;;;2075064;28;19913;-71
2023/07/21 01:22:08;;;;;;;;;;;15.20;99.90;;;;;;2082187;28;22237;-71
2023/07/21 01:23:16;;;;;;;;;;;15.20;99.90;;;;;;2070157;28;19925;-71
2023/07/21 01:24:25;;;;;;;;;;;15.20;99.90;;;;;;2065965;28;19920;-70
2023/07/21 01:25:26;;;;;;;;;;;15.20;99.90;;;;;;2065046;28;19920;-70
2023/07/21 01:26:28;;;;;;;;;;;15.10;99.90;;;;;;2074664;28;19995;-70
2023/07/21 01:27:29;;;;;;;;;;;15.10;99.90;;;;;;2076175;28;19913;-71
2023/07/21 01:28:32;;;;;;;;;;;15.10;99.90;;;;;;2074651;28;19917;-73
2023/07/21 01:29:34;;;;;;;;;;;15.10;99.90;;;;;;2075136;28;19971;-71
2023/07/21 01:30:35;;;;;;;;;;;15.00;99.90;;;;;;2075158;28;20423;-71
2023/07/21 01:31:37;;;;;;;;;;;15.00;99.90;;;;;;2075407;28;20729;-72
2023/07/21 01:32:39;;;;;;;;;;;14.90;99.90;;;;;;2075583;28;20402;-72
2023/07/21 01:33:40;;;;;;;;;;;14.90;99.90;;;;;;2073191;28;19917;-71
2023/07/21 01:34:42;;;;;;;;;;;14.90;99.90;;;;;;2080028;28;19917;-70
2023/07/21 01:35:43;;;;;;;;;;;14.90;99.90;;;;;;2073837;28;19996;-72
2023/07/21 01:36:44;;;;;;;;;;;14.80;99.90;;;;;;2078065;28;19917;-70
2023/07/21 01:37:45;;;;;;;;;;;14.80;99.90;;;;;;2079794;28;19978;-70
2023/07/21 01:38:46;;;;;;;;;;;14.80;99.90;;;;;;2080340;28;20154;-71
2023/07/21 01:39:47;;;;;;;;;;;14.80;99.90;;;;;;2078053;28;19921;-71
2023/07/21 01:40:48;;;;;;;;;;;14.80;99.90;;;;;;2078942;28;19913;-71
2023/07/21 01:41:49;;;;;;;;;;;14.80;99.90;;;;;;2080209;28;19917;-71
2023/07/21 01:42:49;;;;;;;;;;;14.80;99.90;;;;;;2070961;28;20336;-71
2023/07/21 01:43:51;;;;;;;;;;;14.70;99.90;;;;;;2069184;28;19917;-71
2023/07/21 01:44:51;;;;;;;;;;;14.80;99.90;;;;;;2069419;28;20040;-71
2023/07/21 01:45:52;;;;;;;;;;;14.80;99.90;;;;;;2069179;28;20163;-71
2023/07/21 01:46:53;;;;;;;;;;;14.80;99.90;;;;;;2071045;28;19927;-72
2023/07/21 01:47:55;;;;;;;;;;;14.80;99.90;;;;;;2077265;28;20004;-70
2023/07/21 01:48:56;;;;;;;;;;;14.70;99.90;;;;;;2077419;28;19917;-71
2023/07/21 01:49:57;;;;;;;;;;;14.70;99.90;;;;;;2077915;28;19916;-71
2023/07/21 01:50:58;;;;;;;;;;;14.70;99.90;;;;;;2077335;28;20114;-71
2023/07/21 01:51:59;;;;;;;;;;;14.70;99.90;;;;;;2079549;28;19925;-71
2023/07/21 01:53:00;;;;;;;;;;;14.60;99.90;;;;;;2077599;28;20590;-71
2023/07/21 01:54:04;;;;;;;;;;;14.70;99.90;;;;;;2077874;28;19914;-70
2023/07/21 01:55:18;;;;;;;;;;;14.60;99.90;;;;;;2073800;28;20423;-72
2023/07/21 01:56:21;;;;;;;;;;;14.60;99.90;;;;;;2077823;28;20380;-71
2023/07/21 01:57:27;;;;;;;;;;;14.60;99.90;;;;;;2077489;28;20034;-70
2023/07/21 01:58:29;;;;;;;;;;;14.60;99.90;;;;;;2078937;28;19959;-70
2023/07/21 01:59:30;;;;;;;;;;;14.50;99.90;;;;;;2083563;28;19924;-70
2023/07/21 02:00:36;;;;;;;;;;;14.60;99.90;;;;;;2077633;28;20039;-71
2023/07/21 02:01:38;;;;;;;;;;;14.50;99.90;;;;;;2076598;28;19987;-70
2023/07/21 02:02:40;;;;;;;;;;;14.50;99.90;;;;;;2077307;28;19917;-71
2023/07/21 02:03:40;;;;;;;;;;;14.50;99.90;;;;;;2077420;28;19961;-70
2023/07/21 02:04:50;;;;;;;;;;;14.50;99.90;;;;;;2078172;28;20353;-70
2023/07/21 02:05:51;;;;;;;;;;;14.50;99.90;;;;;;2077423;28;19920;-70
2023/07/21 02:06:51;;;;;;;;;;;14.50;99.90;;;;;;2079317;28;19996;-69
2023/07/21 02:07:52;;;;;;;;;;;14.50;99.90;;;;;;2071212;28;20044;-70
2023/07/21 02:08:52;;;;;;;;;;;14.50;99.90;;;;;;2065335;28;19926;-71
2023/07/21 02:09:53;;;;;;;;;;;14.50;99.90;;;;;;2079437;28;20277;-70
2023/07/21 02:10:55;;;;;;;;;;;14.40;99.90;;;;;;2071398;28;19964;-70
2023/07/21 02:12:11;;;;;;;;;;;14.50;99.90;;;;;;2072879;28;19921;-69
2023/07/21 02:13:23;;;;;;;;;;;14.40;99.90;;;;;;2073410;28;20477;-70
2023/07/21 02:14:24;;;;;;;;;;;14.40;99.90;;;;;;2079101;28;20011;-71
2023/07/21 02:15:24;;;;;;;;;;;14.40;99.90;;;;;;2069739;28;20408;-71
2023/07/21 02:16:26;;;;;;;;;;;14.40;99.90;;;;;;2077164;28;19917;-70
2023/07/21 02:17:28;;;;;;;;;;;14.40;99.90;;;;;;2077388;28;20449;-70
2023/07/21 02:18:33;;;;;;;;;;;14.40;99.90;;;;;;2075259;28;21264;-70
2023/07/21 02:19:33;;;;;;;;;;;14.40;99.90;;;;;;2079459;28;19924;-70
2023/07/21 02:20:34;;;;;;;;;;;14.40;99.90;;;;;;2080924;28;20284;-70
2023/07/21 02:21:35;;;;;;;;;;;14.40;99.90;;;;;;2078425;28;20459;-70
2023/07/21 02:22:36;;;;;;;;;;;14.40;99.90;;;;;;2074449;28;19963;-70
2023/07/21 02:23:37;;;;;;;;;;;14.40;99.90;;;;;;2077831;28;19917;-70
2023/07/21 02:24:37;;;;;;;;;;;14.40;99.90;;;;;;2079962;28;20372;-70
2023/07/21 02:25:38;;;;;;;;;;;14.40;99.90;;;;;;2077120;28;19943;-72
2023/07/21 02:26:38;;;;;;;;;;;14.40;99.90;;;;;;2068924;28;19975;-70
2023/07/21 02:27:39;;;;;;;;;;;14.40;99.90;;;;;;2068986;28;19994;-70
2023/07/21 02:28:39;;;;;;;;;;;14.40;99.90;;;;;;2078691;28;20553;-70
2023/07/21 02:29:46;;;;;;;;;;;14.40;99.90;;;;;;2077001;28;19983;-70
2023/07/21 02:30:56;;;;;;;;;;;14.40;99.90;;;;;;2067535;28;20003;-70
2023/07/21 02:31:56;;;;;;;;;;;14.40;99.90;;;;;;2074488;28;19929;-70
2023/07/21 02:32:57;;;;;;;;;;;14.40;99.90;;;;;;2077135;28;19913;-71
2023/07/21 02:33:58;;;;;;;;;;;14.40;99.90;;;;;;2077033;28;19917;-70
2023/07/21 02:34:58;;;;;;;;;;;14.30;99.90;;;;;;2089330;28;19913;-71
2023/07/21 02:36:00;;;;;;;;;;;14.30;99.90;;;;;;2086383;28;19913;-71
2023/07/21 02:37:00;;;;;;;;;;;14.40;99.90;;;;;;2080000;28;20419;-70
2023/07/21 02:38:03;;;;;;;;;;;14.30;99.90;;;;;;2076348;28;19917;-70
2023/07/21 02:39:04;;;;;;;;;;;14.30;99.90;;;;;;2076803;28;19917;-71
2023/07/21 02:40:06;;;;;;;;;;;14.30;99.90;;;;;;2068957;28;19920;-72
2023/07/21 02:41:08;;;;;;;;;;;14.30;99.90;;;;;;2069089;28;20466;-70
2023/07/21 02:42:08;;;;;;;;;;;14.30;99.90;;;;;;2070962;28;19928;-72
2023/07/21 02:43:09;;;;;;;;;;;14.30;99.90;;;;;;2077116;28;20011;-71
2023/07/21 02:44:09;;;;;;;;;;;14.30;99.90;;;;;;2072690;28;19960;-71
2023/07/21 02:45:10;;;;;;;;;;;14.20;99.90;;;;;;2080929;28;19909;-71
2023/07/21 02:46:11;;;;;;;;;;;14.20;99.90;;;;;;2079738;28;19966;-71
2023/07/21 02:47:13;;;;;;;;;;;14.20;99.90;;;;;;2077085;28;20822;-71
2023/07/21 02:48:16;;;;;;;;;;;14.20;99.90;;;;;;2074628;28;19920;-71
2023/07/21 02:49:17;;;;;;;;;;;14.20;99.90;;;;;;2075877;28;20012;-71
2023/07/21 02:50:17;;;;;;;;;;;14.20;99.90;;;;;;2075859;28;20254;-69
2023/07/21 02:51:18;;;;;;;;;;;14.20;99.90;;;;;;2077512;28;19924;-71
2023/07/21 02:52:21;;;;;;;;;;;14.10;99.90;;;;;;2079258;28;19935;-71
2023/07/21 02:53:25;;;;;;;;;;;14.10;99.90;;;;;;2070424;28;20253;-72
2023/07/21 02:54:32;;;;;;;;;;;14.10;99.90;;;;;;2072293;28;20522;-72
2023/07/21 02:55:33;;;;;;;;;;;14.10;99.90;;;;;;2079972;28;20470;-73
2023/07/21 02:56:35;;;;;;;;;;;14.10;99.90;;;;;;2077873;28;19913;-71
2023/07/21 02:57:44;;;;;;;;;;;14.10;99.90;;;;;;2070786;28;19924;-71
2023/07/21 02:58:49;;;;;;;;;;;14.00;99.90;;;;;;2066056;28;19913;-70
2023/07/21 02:59:53;;;;;;;;;;;14.10;99.90;;;;;;2069773;28;19918;-71
2023/07/21 03:01:03;;;;;;;;;;;14.00;99.90;;;;;;2070381;28;19973;-71
2023/07/21 03:02:08;;;;;;;;;;;14.00;99.90;;;;;;2073948;28;19921;-70
2023/07/21 03:03:18;;;;;;;;;;;14.00;99.90;;;;;;2077680;28;20554;-70
2023/07/21 03:04:23;;;;;;;;;;;14.00;99.90;;;;;;2067995;28;20233;-70
2023/07/21 03:05:29;;;;;;;;;;;14.00;99.90;;;;;;2075904;28;20152;-72
2023/07/21 03:06:31;;;;;;;;;;;14.00;99.90;;;;;;2075768;28;20225;-70
2023/07/21 03:07:32;;;;;;;;;;;14.00;99.90;;;;;;2067193;28;20409;-70
2023/07/21 03:08:39;;;;;;;;;;;14.00;99.90;;;;;;2071242;28;20016;-71
2023/07/21 03:09:42;;;;;;;;;;;13.90;99.90;;;;;;2070923;28;19917;-70
2023/07/21 03:10:54;;;;;;;;;;;13.90;99.90;;;;;;2064276;28;20008;-70
2023/07/21 03:11:57;;;;;;;;;;;13.90;99.90;;;;;;2065227;28;19925;-70
2023/07/21 03:13:17;;;;;;;;;;;13.90;99.90;;;;;;2065114;28;20400;-70
2023/07/21 03:14:18;;;;;;;;;;;13.90;99.90;;;;;;2075561;28;20028;-70
2023/07/21 03:15:19;;;;;;;;;;;13.90;99.90;;;;;;2075949;28;19913;-70
2023/07/21 03:16:40;;;;;;;;;;;13.90;99.90;;;;;;2075721;28;19925;-70
2023/07/21 03:17:43;;;;;;;;;;;13.90;99.90;;;;;;2067630;28;19928;-71
2023/07/21 03:18:43;;;;;;;;;;;13.90;99.90;;;;;;2077599;28;19924;-71
2023/07/21 03:19:50;;;;;;;;;;;13.90;99.90;;;;;;2078040;28;20036;-70
2023/07/21 03:20:57;;;;;;;;;;;13.90;99.90;;;;;;2076979;28;20006;-70
2023/07/21 03:21:57;;;;;;;;;;;13.90;99.90;;;;;;2076394;28;20379;-70
2023/07/21 03:22:58;;;;;;;;;;;13.90;99.90;;;;;;2076597;28;19917;-71
2023/07/21 03:23:58;;;;;;;;;;;13.90;99.90;;;;;;2075577;28;19964;-70
2023/07/21 03:25:04;;;;;;;;;;;13.90;99.90;;;;;;2069840;28;19918;-70
2023/07/21 03:26:04;;;;;;;;;;;13.90;99.90;;;;;;2077926;28;19913;-70
2023/07/21 03:27:12;;;;;;;;;;;13.90;99.90;;;;;;2068903;28;19932;-71
2023/07/21 03:28:14;;;;;;;;;;;13.90;99.90;;;;;;2075771;28;20087;-71
2023/07/21 03:29:16;;;;;;;;;;;13.80;99.90;;;;;;2074334;28;20308;-71
2023/07/21 03:30:20;;;;;;;;;;;13.90;99.90;;;;;;2068397;28;19936;-71
2023/07/21 03:31:34;;;;;;;;;;;13.90;99.90;;;;;;2068979;28;19917;-73
2023/07/21 03:32:45;;;;;;;;;;;13.90;99.90;;;;;;2067644;28;20459;-70
2023/07/21 03:33:45;;;;;;;;;;;13.90;99.90;;;;;;2077118;28;19912;-69
2023/07/21 03:34:52;;;;;;;;;;;13.90;99.90;;;;;;2073594;28;20452;-70
2023/07/21 03:35:56;;;;;;;;;;;13.90;99.90;;;;;;2075387;28;19944;-70
2023/07/21 03:36:57;;;;;;;;;;;13.90;99.90;;;;;;2079240;28;20439;-70
2023/07/21 03:37:57;;;;;;;;;;;13.90;99.90;;;;;;2072680;28;19913;-70
2023/07/21 03:38:58;;;;;;;;;;;14.00;99.90;;;;;;2077316;28;19917;-70
2023/07/21 03:39:58;;;;;;;;;;;14.00;99.90;;;;;;2067367;28;20967;-70
2023/07/21 03:41:09;;;;;;;;;;;14.00;99.90;;;;;;2066924;28;19971;-71
2023/07/21 03:42:10;;;;;;;;;;;13.90;99.90;;;;;;2067900;28;20401;-70
2023/07/21 03:43:11;;;;;;;;;;;13.90;99.90;;;;;;2075244;28;19917;-70
2023/07/21 03:44:13;;;;;;;;;;;14.00;99.90;;;;;;2070087;28;19923;-70
2023/07/21 03:45:16;;;;;;;;;;;14.00;99.90;;;;;;2070028;28;19913;-70
2023/07/21 03:46:16;;;;;;;;;;;14.00;99.90;;;;;;2080652;28;20066;-70
2023/07/21 03:47:36;;;;;;;;;;;14.00;99.90;;;;;;2082347;28;19912;-71
2023/07/21 03:48:37;;;;;;;;;;;14.00;99.90;;;;;;2077199;28;19921;-71
2023/07/21 03:49:41;;;;;;;;;;;14.00;99.90;;;;;;2068976;28;20052;-71
2023/07/21 03:50:44;;;;;;;;;;;14.00;99.90;;;;;;2074393;28;20011;-70
2023/07/21 03:51:44;;;;;;;;;;;14.00;99.90;;;;;;2067222;28;19926;-71
2023/07/21 03:52:48;;;;;;;;;;;14.00;99.90;;;;;;2075141;28;19952;-71
2023/07/21 03:53:51;;;;;;;;;;;14.00;99.90;;;;;;2078943;28;19917;-70
2023/07/21 03:54:55;;;;;;;;;;;14.00;99.90;;;;;;2081481;28;20338;-71
2023/07/21 03:55:55;;;;;;;;;;;14.00;99.90;;;;;;2075312;28;19964;-70
2023/07/21 03:56:56;;;;;;;;;;;14.10;99.90;;;;;;2068285;28;19913;-71
2023/07/21 03:57:56;;;;;;;;;;;14.10;99.90;;;;;;2074933;28;19959;-70
2023/07/21 03:58:58;;;;;;;;;;;14.10;99.90;;;;;;2076800;28;19913;-71
2023/07/21 03:59:58;;;;;;;;;;;14.10;99.90;;;;;;2058919;28;20040;-71
2023/07/21 04:00:59;;;;;;;;;;;14.10;99.90;;;;;;2066172;28;19957;-71
2023/07/21 04:02:01;;;;;;;;;;;14.10;99.90;;;;;;2066975;28;19913;-71
2023/07/21 04:03:02;;;;;;;;;;;14.20;99.90;;;;;;2067227;28;19917;-71
2023/07/21 04:04:03;;;;;;;;;;;14.20;99.90;;;;;;2077178;28;20576;-71
2023/07/21 04:05:04;;;;;;;;;;;14.20;99.90;;;;;;2077703;28;20003;-71
2023/07/21 04:06:08;;;;;;;;;;;14.20;99.90;;;;;;2058850;28;20410;-71
2023/07/21 04:07:10;;;;;;;;;;;14.20;99.90;;;;;;2067049;28;19918;-71
2023/07/21 04:08:11;;;;;;;;;;;14.20;99.90;;;;;;2062746;28;19947;-70
2023/07/21 04:09:13;;;;;;;;;;;14.30;99.90;;;;;;2067425;28;20412;-71
2023/07/21 04:10:14;;;;;;;;;;;14.30;99.90;;;;;;2068928;28;19933;-71
2023/07/21 04:11:15;;;;;;;;;;;14.30;99.90;;;;;;2075183;28;20434;-71
2023/07/21 04:12:15;;;;;;;;;;;14.30;99.90;;;;;;2075114;28;19929;-71
2023/07/21 04:13:15;;;;;;;;;;;14.40;99.90;;;;;;2066877;28;20069;-71
2023/07/21 04:14:16;;;;;;;;;;;14.40;99.90;;;;;;2071979;28;19948;-71
2023/07/21 04:15:16;;;;;;;;;;;14.40;99.90;;;;;;2068798;28;19913;-72
2023/07/21 04:16:17;;;;;;;;;;;14.40;99.90;;;;;;2065312;28;20411;-71
2023/07/21 04:17:17;;;;;;;;;;;14.40;99.90;;;;;;2079490;28;20024;-71
2023/07/21 04:18:18;;;;;;;;;;;14.50;99.90;;;;;;2076790;28;19927;-71
2023/07/21 04:19:19;;;;;;;;;;;14.60;99.90;;;;;;2075289;28;20432;-72
2023/07/21 04:20:22;;;;;;;;;;;14.80;99.90;;;;;;2074840;28;20406;-71
2023/07/21 04:21:22;;;;;;;;;;;15.10;99.90;;;;;;2086705;28;19917;-71
2023/07/21 04:22:23;;;;;;;;;;;15.50;99.90;;;;;;2079911;28;20059;-71
2023/07/21 04:23:24;;;;;;;;;;;15.90;99.90;;;;;;2082150;28;19940;-71
2023/07/21 04:24:26;;;;;;;;;;;16.30;99.90;;;;;;2077006;28;19996;-71
2023/07/21 04:25:27;;;;;;;;;;;16.70;99.90;;;;;;2075373;28;19913;-71
2023/07/21 04:26:28;;;;;;;;;;;17.00;99.90;;;;;;2075045;28;19913;-71
2023/07/21 04:27:31;;;;;;;;;;;17.40;99.90;;;;;;2066919;28;19913;-70
2023/07/21 04:28:32;;;;;;;;;;;17.70;99.90;;;;;;2076473;28;20407;-71
2023/07/21 04:29:32;;;;;;;;;;;18.00;99.90;;;;;;2074993;28;20363;-71
2023/07/21 04:30:33;;;;;;;;;;;18.20;99.90;;;;;;2074913;28;19924;-71
2023/07/21 04:31:34;;;;;;;;;;;18.40;99.90;;;;;;2078232;28;19917;-70
2023/07/21 04:32:41;;;;;;;;;;;18.70;99.90;;;;;;2079278;28;20008;-72
2023/07/21 04:33:43;;;;;;;;;;;18.90;99.90;;;;;;2076913;28;20191;-71
2023/07/21 04:34:44;;;;;;;;;;;19.10;99.90;;;;;;2067037;28;20426;-71
2023/07/21 04:35:48;;;;;;;;;;;19.20;99.90;;;;;;2075182;28;19921;-72
2023/07/21 04:36:54;;;;;;;;;;;19.30;99.90;;;;;;2066851;28;19971;-71
2023/07/21 04:38:07;;;;;;;;;;;19.40;99.90;;;;;;2062698;28;19917;-72
2023/07/21 04:39:13;;;;;;;;;;;19.40;99.90;;;;;;2069644;28;19925;-71
2023/07/21 04:40:14;;;;;;;;;;;19.30;99.90;;;;;;2074966;28;19967;-71
2023/07/21 04:41:16;;;;;;;;;;;19.30;99.90;;;;;;2074807;28;20006;-72
2023/07/21 04:42:17;;;;;;;;;;;19.30;99.90;;;;;;2074623;28;19917;-69
2023/07/21 04:43:18;;;;;;;;;;;19.20;99.90;;;;;;2076640;28;20224;-71
2023/07/21 04:44:18;;;;;;;;;;;19.00;99.90;;;;;;2075071;28;19917;-71
2023/07/21 04:45:19;;;;;;;;;;;18.90;99.90;;;;;;2074798;28;20307;-71
2023/07/21 04:46:35;;;;;;;;;;;18.90;99.90;;;;;;2073662;28;19917;-71
2023/07/21 04:47:36;;;;;;;;;;;18.90;99.90;;;;;;2074044;28;19921;-71
2023/07/21 04:48:40;;;;;;;;;;;19.00;99.90;;;;;;2062423;28;19943;-71
2023/07/21 04:49:48;;;;;;;;;;;18.90;99.90;;;;;;2066975;28;20432;-71
2023/07/21 04:50:52;;;;;;;;;;;18.90;99.90;;;;;;2067303;28;20355;-70
2023/07/21 04:51:52;;;;;;;;;;;19.00;99.90;;;;;;2069009;28;19926;-71
2023/07/21 04:52:53;;;;;;;;;;;19.10;99.90;;;;;;2066605;28;19929;-71
2023/07/21 04:53:53;;;;;;;;;;;19.10;99.90;;;;;;2075023;28;20316;-71
2023/07/21 04:54:54;;;;;;;;;;;19.10;99.90;;;;;;2075484;28;19954;-71
2023/07/21 04:55:58;;;;;;;;;;;19.00;99.90;;;;;;2076445;28;19917;-70
2023/07/21 04:57:00;;;;;;;;;;;18.80;99.90;;;;;;2065344;28;19929;-70
2023/07/21 04:58:02;;;;;;;;;;;18.70;99.90;;;;;;2066601;28;20004;-70
2023/07/21 04:59:02;;;;;;;;;;;18.50;99.90;;;;;;2074952;28;19921;-71
2023/07/21 05:00:03;;;;;;;;;;;18.50;99.90;;;;;;2086216;28;19968;-70
2023/07/21 05:01:04;;;;;;;;;;;18.40;99.90;;;;;;2088901;28;20387;-71
2023/07/21 05:02:05;;;;;;;;;;;18.50;99.90;;;;;;2070794;28;20600;-70
2023/07/21 05:03:05;;;;;;;;;;;18.60;99.90;;;;;;2072994;28;19935;-71
2023/07/21 05:04:07;;;;;;;;;;;18.80;99.90;;;;;;2084199;28;19940;-71
2023/07/21 05:05:08;;;;;;;;;;;19.00;99.90;;;;;;2079190;28;20454;-72
2023/07/21 05:06:16;;;;;;;;;;;19.20;99.90;;;;;;2065310;28;19979;-71
2023/07/21 05:07:18;;;;;;;;;;;19.50;99.90;;;;;;2063535;28;19917;-70
2023/07/21 05:08:20;;;;;;;;;;;19.90;99.90;;;;;;2061696;28;19910;-70
2023/07/21 05:09:21;;;;;;;;;;;20.10;99.90;;;;;;2066692;28;19923;-70
2023/07/21 05:10:24;;;;;;;;;;;20.40;99.90;;;;;;2065233;28;20176;-71
2023/07/21 05:11:25;;;;;;;;;;;20.60;99.90;;;;;;2068713;28;19917;-71
2023/07/21 05:12:25;;;;;;;;;;;20.80;99.90;;;;;;2074705;28;20585;-70
2023/07/21 05:13:51;;;;;;;;;;;21.00;99.90;;;;;;2069716;28;19913;-69
2023/07/21 05:14:59;;;;;;;;;;;21.20;99.90;;;;;;2076275;28;20028;-70
2023/07/21 05:16:12;;;;;;;;;;;21.30;99.90;;;;;;2075023;28;20384;-70
2023/07/21 05:17:17;;;;;;;;;;;21.50;99.90;;;;;;2073199;28;19924;-70
2023/07/21 05:18:43;;;;;;;;;;;21.60;99.90;;;;;;2067503;28;19917;-71
2023/07/21 05:20:09;;;;;;;;;;;21.80;99.90;;;;;;2074326;28;20012;-71
2023/07/21 05:21:33;;;;;;;;;;;21.90;99.90;;;;;;2074209;28;19917;-70
2023/07/21 05:22:40;;;;;;;;;;;22.20;99.90;;;;;;2074583;28;20435;-71
2023/07/21 05:23:50;;;;;;;;;;;22.30;99.90;;;;;;2067313;28;19917;-71
2023/07/21 05:24:55;;;;;;;;;;;22.50;99.90;;;;;;2066851;28;19917;-72
2023/07/21 05:26:00;;;;;;;;;;;22.60;99.90;;;;;;2074669;28;20005;-72
2023/07/21 05:27:01;;;;;;;;;;;22.80;99.90;;;;;;2074621;28;19917;-71
2023/07/21 05:28:14;;;;;;;;;;;23.00;99.90;;;;;;2074496;28;19924;-71
2023/07/21 05:29:17;;;;;;;;;;;23.30;99.90;;;;;;2066927;28;19925;-71
2023/07/21 05:30:21;;;;;;;;;;;23.50;99.90;;;;;;2066419;28;19992;-70
2023/07/21 05:31:25;;;;;;;;;;;23.60;99.60;;;;;;2073664;28;19917;-71
2023/07/21 05:32:30;;;;;;;;;;;23.80;99.20;;;;;;2074191;28;19921;-71
2023/07/21 05:33:37;;;;;;;;;;;23.70;97.70;;;;;;2066684;28;20031;-71
2023/07/21 05:34:40;;;;;;;;;;;23.30;97.30;;;;;;2068542;28;19925;-71
2023/07/21 05:35:41;;;;;;;;;;;22.90;97.70;;;;;;2066278;28;19913;-70
2023/07/21 05:36:50;;;;;;;;;;;22.50;98.60;;;;;;2074397;28;19956;-71
2023/07/21 05:37:52;;;;;;;;;;;22.00;99.40;;;;;;2066496;28;20300;-71
2023/07/21 05:38:52;;;;;;;;;;;21.60;99.90;;;;;;2066384;28;19996;-72
2023/07/21 05:39:54;;;;;;;;;;;21.30;99.90;;;;;;2076703;28;19928;-71
2023/07/21 05:40:58;;;;;;;;;;;21.00;99.90;;;;;;2072131;28;19932;-71
2023/07/21 05:42:01;;;;;;;;;;;20.80;99.90;;;;;;2072261;28;19928;-71
2023/07/21 05:43:05;;;;;;;;;;;20.70;99.90;;;;;;2069548;28;19968;-71
2023/07/21 05:44:06;;;;;;;;;;;20.60;99.90;;;;;;2065452;28;19920;-71
2023/07/21 05:45:11;;;;;;;;;;;20.50;99.90;;;;;;2066741;28;20306;-72
2023/07/21 05:46:13;;;;;;;;;;;20.30;99.90;;;;;;2066153;28;20031;-71
2023/07/21 05:47:24;;;;;;;;;;;20.20;99.90;;;;;;2072407;28;19913;-71
2023/07/21 05:48:27;;;;;;;;;;;20.20;99.90;;;;;;2070021;28;19960;-71
2023/07/21 05:49:33;;;;;;;;;;;20.20;99.90;;;;;;2077050;28;19917;-71
2023/07/21 05:50:34;;;;;;;;;;;20.20;99.90;;;;;;2073094;28;20326;-71
2023/07/21 05:51:35;;;;;;;;;;;20.40;99.90;;;;;;2073162;28;20402;-71
2023/07/21 05:52:53;;;;;;;;;;;20.40;99.90;;;;;;2075398;28;19917;-71
2023/07/21 05:53:59;;;;;;;;;;;20.40;99.90;;;;;;2068760;28;19992;-71
2023/07/21 05:55:03;;;;;;;;;;;20.50;99.90;;;;;;2066653;28;19922;-71
2023/07/21 05:56:06;;;;;;;;;;;20.50;99.90;;;;;;2074210;28;19921;-71
2023/07/21 05:57:21;;;;;;;;;;;20.40;99.90;;;;;;2074517;28;19917;-70
2023/07/21 05:58:24;;;;;;;;;;;20.30;99.90;;;;;;2074152;28;19924;-71
2023/07/21 05:59:25;;;;;;;;;;;20.20;99.90;;;;;;2074603;28;20450;-73
2023/07/21 06:00:26;;;;;;;;;;;20.00;99.90;;;;;;2062706;28;19925;-71
2023/07/21 06:01:34;;;;;;;;;;;19.90;99.90;;;;;;2066927;28;19918;-73
2023/07/21 06:02:35;;;;;;;;;;;19.70;99.90;;;;;;2080486;28;20304;-72
2023/07/21 06:03:37;;;;;;;;;;;19.60;99.90;;;;;;2071310;28;20023;-72
2023/07/21 06:04:39;;;;;;;;;;;19.50;99.90;;;;;;2058811;28;20003;-72
2023/07/21 06:06:05;;;;;;;;;;;19.40;99.90;;;;;;2065121;28;20017;-72